Time;durP1;ratioP1;P1;durP2;ratioP2;P2;SDS_P1;SDS_P2;PMS_P1;PMS_P2;Temp;Humidity;BMP_temperature;BMP_pressure;BME280_temperature;BME280_humidity;BME280_pressure;Samples;Min_cycle;Max_cycle;Signal;HPM_P1;HPM_P2
2022/01/05 05:02:38;;;;;;;7.00;3.60;;;;;;;7.27;100.00;98181.53;4502074;31;155437;-78
2022/01/05 05:05:27;;;;;;;5.45;3.05;;;;;;;7.27;100.00;98181.53;4481638;32;33849;-79
2022/01/05 05:08:13;;;;;;;6.22;3.47;;;;;;;7.49;100.00;98180.50;4491188;31;35582;-79
2022/01/05 05:11:00;;;;;;;6.37;3.33;;;;;;;7.78;99.02;98185.19;4484676;32;35247;-78
2022/01/05 05:13:46;;;;;;;6.62;3.40;;;;;;;8.30;95.47;98190.34;4481413;31;34059;-79
2022/01/05 05:16:33;;;;;;;5.28;2.80;;;;;;;7.92;95.38;98187.69;4487422;32;34191;-78
2022/01/05 05:19:19;;;;;;;6.68;2.70;;;;;;;7.80;96.82;98193.84;4486245;32;33763;-79
2022/01/05 05:22:05;;;;;;;6.45;2.80;;;;;;;8.21;94.57;98191.56;4478845;32;34914;-79
2022/01/05 05:24:52;;;;;;;5.32;3.20;;;;;;;8.29;92.70;98201.63;4484508;32;35510;-79
2022/01/05 05:27:38;;;;;;;7.50;3.30;;;;;;;8.09;93.82;98195.00;4490171;31;34118;-79
2022/01/05 05:30:44;;;;;;;7.53;3.40;;;;;;;8.74;91.30;98192.81;4490942;31;34625;-80
2022/01/05 05:33:31;;;;;;;6.75;3.17;;;;;;;8.63;90.15;98192.41;4491330;31;34946;-79
2022/01/05 05:36:17;;;;;;;6.85;3.20;;;;;;;8.65;89.23;98189.34;4490307;32;34447;-79
2022/01/05 05:39:04;;;;;;;8.05;3.50;;;;;;;8.61;90.24;98197.41;4489198;31;34270;-80
2022/01/05 05:41:51;;;;;;;8.57;3.22;;;;;;;8.84;89.10;98200.59;4487356;32;34573;-79
2022/01/05 05:44:37;;;;;;;6.65;3.25;;;;;;;9.10;87.02;98200.34;4483274;31;34665;-79
2022/01/05 05:47:24;;;;;;;5.03;2.92;;;;;;;9.03;87.04;98213.78;4474358;32;33409;-79
2022/01/05 05:50:11;;;;;;;5.57;3.20;;;;;;;8.93;87.87;98212.22;4490666;31;35600;-79
2022/01/05 05:52:57;;;;;;;6.37;3.45;;;;;;;8.56;87.30;98219.44;4490413;31;33758;-79
2022/01/05 05:55:43;;;;;;;6.40;3.00;;;;;;;8.88;88.12;98222.56;4480133;31;34114;-79
2022/01/05 05:58:29;;;;;;;6.80;3.00;;;;;;;8.80;86.98;98218.78;4489343;31;34443;-79
2022/01/05 06:01:16;;;;;;;7.45;3.40;;;;;;;9.31;85.05;98218.66;4490114;31;34314;-79
2022/01/05 06:04:03;;;;;;;7.35;4.20;;;;;;;9.31;85.17;98216.72;4489879;31;33756;-79
2022/01/05 06:06:49;;;;;;;5.72;3.33;;;;;;;8.75;87.27;98208.84;4486751;32;36322;-79
2022/01/05 06:09:35;;;;;;;6.45;3.33;;;;;;;9.15;85.49;98218.47;4488849;32;34568;-79
2022/01/05 06:12:22;;;;;;;8.70;3.80;;;;;;;8.37;89.89;98222.59;4485336;31;35138;-79
2022/01/05 06:15:09;;;;;;;6.43;3.20;;;;;;;8.24;91.14;98227.16;4479510;31;34239;-79
2022/01/05 06:17:55;;;;;;;5.65;3.25;;;;;;;8.73;88.65;98226.69;4467440;31;36004;-78
2022/01/05 06:20:41;;;;;;;6.30;3.22;;;;;;;9.03;87.72;98212.97;4479480;32;34969;-79
2022/01/05 06:23:28;;;;;;;5.75;3.33;;;;;;;8.34;90.22;98217.81;4479078;32;34085;-79
2022/01/05 06:26:14;;;;;;;6.75;3.30;;;;;;;8.66;89.01;98224.50;4461555;32;36672;-81
2022/01/05 06:29:00;;;;;;;5.53;3.03;;;;;;;9.08;87.32;98220.94;4481004;32;35048;-78
2022/01/05 06:31:47;;;;;;;6.37;3.25;;;;;;;9.26;86.07;98225.13;4465533;32;34541;-77
2022/01/05 06:34:33;;;;;;;6.07;2.83;;;;;;;8.85;88.05;98224.06;4477691;32;33650;-77
2022/01/05 06:37:20;;;;;;;6.53;3.10;;;;;;;8.98;87.80;98219.44;4483459;32;34673;-77
2022/01/05 06:40:07;;;;;;;6.45;2.97;;;;;;;8.70;89.84;98224.63;4483682;32;35070;-77
2022/01/05 06:42:54;;;;;;;6.47;3.78;;;;;;;9.22;87.24;98229.66;4475949;32;34350;-77
2022/01/05 06:45:40;;;;;;;6.82;4.05;;;;;;;9.62;84.90;98227.16;4483321;32;34178;-77
2022/01/05 06:48:26;;;;;;;9.60;4.37;;;;;;;9.78;84.06;98223.75;4483479;32;35581;-77
2022/01/05 06:51:13;;;;;;;7.25;3.70;;;;;;;9.81;83.56;98218.41;4483374;32;35070;-77
2022/01/05 06:54:00;;;;;;;6.72;3.47;;;;;;;9.69;84.27;98216.44;4473761;32;34186;-77
2022/01/05 06:56:46;;;;;;;6.07;3.37;;;;;;;9.49;84.42;98224.75;4483771;32;34073;-77
2022/01/05 06:59:33;;;;;;;7.28;3.50;;;;;;;9.60;84.80;98234.09;4475692;32;34597;-77
2022/01/05 07:02:19;;;;;;;7.30;3.05;;;;;;;9.24;85.75;98233.66;4482552;31;36007;-77
2022/01/05 07:05:07;;;;;;;9.20;4.35;;;;;;;9.03;87.59;98232.09;4483907;32;34582;-77
2022/01/05 07:07:53;;;;;;;8.25;3.22;;;;;;;9.22;87.33;98241.41;4482181;32;34146;-76
2022/01/05 07:10:40;;;;;;;5.50;3.00;;;;;;;9.01;87.79;98221.50;4470494;32;34522;-77
2022/01/05 14:40:34;;;;;;;7.18;3.45;;;;;;;5.95;100.00;98591.56;4509322;31;152882;-78
2022/01/05 14:43:23;;;;;;;16.52;6.47;;;;;;;5.95;100.00;98591.56;4497875;31;34921;-77
2022/01/05 14:46:09;;;;;;;23.15;11.65;;;;;;;5.50;100.00;98597.66;4506163;31;34671;-77
2022/01/05 14:48:56;;;;;;;12.55;4.53;;;;;;;6.33;100.00;98597.50;4502585;31;35150;-77
2022/01/05 14:51:50;;;;;;;8.93;4.90;;;;;;;5.84;100.00;98616.25;4498462;31;34486;-77
2022/01/05 14:54:38;;;;;;;13.80;4.80;;;;;;;6.19;100.00;98615.78;4504605;31;34235;-77
2022/01/05 14:57:24;;;;;;;10.25;4.85;;;;;;;6.14;100.00;98611.25;4491065;31;34650;-77
2022/01/05 15:00:14;;;;;;;7.97;4.00;;;;;;;6.19;100.00;98618.50;4485339;31;34986;-77
2022/01/05 15:03:02;;;;;;;14.43;7.78;;;;;;;6.76;100.00;98608.69;4499227;31;34563;-77
2022/01/05 15:05:49;;;;;;;14.27;7.45;;;;;;;6.62;100.00;98612.59;4501238;31;34373;-77
2022/01/05 15:08:35;;;;;;;12.75;7.35;;;;;;;6.25;100.00;98620.78;4497103;31;35438;-77
2022/01/05 15:11:22;;;;;;;10.48;3.95;;;;;;;5.97;100.00;98641.81;4490382;31;34609;-78
2022/01/05 15:14:08;;;;;;;8.98;3.53;;;;;;;6.29;100.00;98646.28;4491891;31;34575;-77
2022/01/05 15:16:55;;;;;;;11.57;6.28;;;;;;;5.81;100.00;98662.25;4495226;32;35087;-77
2022/01/05 15:19:41;;;;;;;10.40;5.18;;;;;;;5.82;100.00;98680.97;4507175;31;34586;-77
2022/01/05 15:22:28;;;;;;;8.68;4.45;;;;;;;6.17;100.00;98689.53;4493192;31;35700;-77
2022/01/05 15:25:17;;;;;;;10.35;4.93;;;;;;;7.09;100.00;98671.06;4486826;31;35333;-77
2022/01/05 15:28:04;;;;;;;8.95;3.75;;;;;;;5.64;100.00;98679.19;4503868;31;35082;-76
2022/01/05 15:30:53;;;;;;;11.73;7.75;;;;;;;6.01;100.00;98694.50;4506882;31;34315;-77
2022/01/05 15:33:40;;;;;;;9.27;5.62;;;;;;;5.58;100.00;98686.62;4497281;31;36009;-78
2022/01/05 15:36:26;;;;;;;10.07;4.70;;;;;;;6.28;100.00;98658.25;4497421;31;34630;-78
2022/01/05 15:39:13;;;;;;;11.57;5.85;;;;;;;5.79;100.00;98662.56;4497090;31;34170;-78
2022/01/05 15:42:00;;;;;;;8.68;5.20;;;;;;;5.57;100.00;98682.28;4491805;32;34495;-78
2022/01/05 15:44:47;;;;;;;10.25;4.75;;;;;;;5.55;100.00;98661.94;4500104;31;35157;-77
2022/01/05 15:47:36;;;;;;;8.27;5.03;;;;;;;5.86;100.00;98662.97;4497892;31;35345;-77
2022/01/05 15:50:28;;;;;;;17.60;9.73;;;;;;;5.88;100.00;98681.69;4487800;31;34136;-77
2022/01/05 15:53:17;;;;;;;31.25;16.23;;;;;;;6.10;100.00;98672.81;4500317;31;35562;-77
2022/01/05 15:56:12;;;;;;;10.65;6.47;;;;;;;6.34;100.00;98679.94;4502309;31;34906;-77
2022/01/05 16:02:06;;;;;;;13.45;7.12;;;;;;;6.58;100.00;98685.09;4490684;31;34945;-80
2022/01/05 16:04:53;;;;;;;9.05;5.25;;;;;;;5.99;100.00;98694.00;4493503;31;34837;-80
2022/01/05 16:07:40;;;;;;;9.55;5.22;;;;;;;6.03;100.00;98711.31;4472306;31;36024;-80
2022/01/05 16:10:26;;;;;;;17.98;9.68;;;;;;;5.81;100.00;98714.72;4489160;31;34052;-80
2022/01/05 16:13:15;;;;;;;21.67;12.45;;;;;;;6.00;100.00;98700.22;4481267;31;34136;-80
2022/01/05 16:16:01;;;;;;;27.52;15.88;;;;;;;5.48;100.00;98711.25;4485445;31;34588;-81
2022/01/05 16:18:49;;;;;;;27.42;15.65;;;;;;;5.68;100.00;98699.19;4482302;31;35013;-80
2022/01/05 16:21:37;;;;;;;20.90;12.23;;;;;;;6.10;100.00;98694.59;4476062;31;34558;-79
2022/01/05 16:24:24;;;;;;;23.87;15.00;;;;;;;6.23;100.00;98682.06;4493281;31;34271;-80
2022/01/05 16:27:11;;;;;;;10.40;6.00;;;;;;;5.94;100.00;98671.53;4468119;31;35184;-80
2022/01/05 16:29:57;;;;;;;14.75;5.90;;;;;;;6.30;98.78;98661.50;4482791;31;34571;-80
2022/01/05 16:32:43;;;;;;;10.73;5.78;;;;;;;6.21;98.82;98674.22;4496073;31;35431;-80
2022/01/05 16:35:48;;;;;;;8.52;4.47;;;;;;;5.88;100.00;98665.38;4481104;31;34187;-80
2022/01/05 16:38:35;;;;;;;7.60;4.70;;;;;;;6.30;96.68;98666.13;4473382;31;34547;-80
2022/01/05 16:41:22;;;;;;;10.95;6.40;;;;;;;7.39;92.10;98652.28;4473044;31;35320;-80
2022/01/05 16:44:08;;;;;;;7.57;4.40;;;;;;;7.00;92.02;98667.44;4483254;31;34503;-80
2022/01/05 16:46:55;;;;;;;6.28;3.47;;;;;;;7.61;88.11;98678.69;4496988;31;34166;-80
2022/01/05 16:49:41;;;;;;;12.32;5.82;;;;;;;8.04;86.54;98689.72;4489997;31;34701;-80
2022/01/05 16:52:27;;;;;;;10.82;5.40;;;;;;;8.14;85.64;98693.28;4492339;31;36034;-79
2022/01/05 16:55:17;;;;;;;10.52;5.40;;;;;;;8.24;85.21;98691.06;4474610;31;36628;-79
2022/01/05 17:01:09;;;;;;;34.15;17.60;;;;;;;7.82;88.48;98676.19;4477329;31;35539;-83
2022/01/05 17:03:56;;;;;;;12.00;6.28;;;;;;;7.15;91.62;98702.50;4486130;31;35923;-83
2022/01/05 17:06:45;;;;;;;21.33;10.55;;;;;;;7.70;88.10;98723.13;4476945;31;35130;-83
2022/01/05 17:09:31;;;;;;;18.98;8.45;;;;;;;7.49;88.01;98752.88;4472817;31;34626;-83
2022/01/05 17:12:19;;;;;;;17.45;8.98;;;;;;;7.86;86.69;98748.88;4476795;31;34669;-83
2022/01/05 17:15:06;;;;;;;11.07;5.97;;;;;;;7.71;87.25;98732.12;4478204;31;34565;-83
2022/01/05 17:17:54;;;;;;;15.27;7.10;;;;;;;8.00;85.03;98747.97;4486011;31;35450;-84
2022/01/05 17:20:40;;;;;;;13.10;6.10;;;;;;;7.95;84.69;98746.19;4480581;31;34074;-82
2022/01/05 17:23:31;;;;;;;8.40;3.50;;;;;;;6.05;92.95;98771.63;4477055;31;34652;-83
2022/01/05 17:26:20;;;;;;;6.57;2.95;;;;;;;6.17;93.69;98783.91;4487913;31;34811;-81
2022/01/05 17:29:07;;;;;;;5.72;2.65;;;;;;;6.20;93.97;98781.41;4477262;31;34754;-80
2022/01/05 17:31:53;;;;;;;4.15;2.50;;;;;;;6.49;92.40;98783.00;4500410;31;34114;-82
2022/01/05 17:34:41;;;;;;;5.68;2.65;;;;;;;7.32;87.75;98782.75;4482084;31;34275;-81
2022/01/05 17:37:28;;;;;;;6.00;3.53;;;;;;;6.49;90.74;98788.44;4489934;31;33980;-81
2022/01/05 17:40:15;;;;;;;7.18;3.80;;;;;;;5.48;95.94;98775.66;4476321;31;35314;-81
2022/01/05 17:43:02;;;;;;;6.60;3.22;;;;;;;6.09;92.65;98769.13;4480794;31;34018;-81
2022/01/05 17:45:59;;;;;;;5.22;3.15;;;;;;;5.19;97.08;98773.97;4471224;31;35465;-80
2022/01/05 17:48:47;;;;;;;6.60;3.42;;;;;;;5.59;96.44;98786.06;4489052;31;35151;-81
2022/01/05 17:51:40;;;;;;;5.78;3.05;;;;;;;5.38;97.79;98782.09;4492618;31;35360;-81
2022/01/05 17:54:26;;;;;;;5.45;3.10;;;;;;;5.30;98.12;98777.34;4478236;31;34168;-81
2022/01/05 17:57:13;;;;;;;6.93;3.62;;;;;;;5.02;97.84;98771.78;4489309;31;35606;-82
2022/01/05 18:00:00;;;;;;;7.07;3.50;;;;;;;5.06;98.54;98766.56;4490863;31;35103;-81
2022/01/05 18:02:50;;;;;;;6.90;3.83;;;;;;;5.10;100.00;98759.47;4476159;31;35272;-81
2022/01/05 18:05:37;;;;;;;14.93;3.37;;;;;;;5.09;99.11;98768.69;4481955;31;34166;-81
2022/01/05 18:08:23;;;;;;;8.25;3.83;;;;;;;5.37;97.66;98769.59;4481540;31;34452;-81
2022/01/05 18:11:10;;;;;;;7.37;3.87;;;;;;;4.91;99.24;98773.84;4477585;31;34591;-81
2022/01/05 18:13:58;;;;;;;7.28;3.45;;;;;;;5.37;97.35;98770.41;4474201;31;34417;-81
2022/01/05 18:16:49;;;;;;;7.18;3.28;;;;;;;5.53;94.91;98768.22;4488796;31;33138;-81
2022/01/05 18:19:37;;;;;;;7.32;4.05;;;;;;;5.49;95.57;98771.84;4486955;31;34761;-80
2022/01/05 18:22:25;;;;;;;9.27;3.40;;;;;;;5.38;95.23;98782.91;4478068;31;35068;-80
2022/01/05 18:25:12;;;;;;;5.68;3.17;;;;;;;5.53;94.57;98783.72;4476776;31;34963;-80
2022/01/05 18:27:59;;;;;;;5.65;2.62;;;;;;;5.55;94.60;98765.19;4485708;31;34020;-80
2022/01/05 18:30:47;;;;;;;4.82;2.78;;;;;;;5.17;95.72;98774.25;4480109;31;37112;-81
2022/01/05 18:33:56;;;;;;;4.22;2.40;;;;;;;5.30;95.18;98778.12;4486145;31;36676;-83
2022/01/05 18:36:47;;;;;;;5.43;2.28;;;;;;;5.07;96.24;98770.91;4478694;31;34675;-82
2022/01/05 18:39:34;;;;;;;4.80;2.10;;;;;;;4.87;96.29;98766.63;4477370;31;34595;-81
2022/01/05 18:42:39;;;;;;;3.67;2.00;;;;;;;5.10;95.00;98759.47;4480375;31;34510;-84
2022/01/05 18:45:26;;;;;;;3.67;1.87;;;;;;;5.20;94.39;98756.56;4477377;31;33803;-82
2022/01/05 18:48:13;;;;;;;3.92;2.20;;;;;;;4.92;93.76;98747.50;4486536;31;34606;-80
2022/01/05 18:50:59;;;;;;;2.92;1.65;;;;;;;5.02;92.52;98768.28;4477691;31;34448;-85
2022/01/05 18:53:50;;;;;;;2.97;1.60;;;;;;;5.07;91.38;98769.00;4484835;31;34405;-84
2022/01/05 18:56:37;;;;;;;2.85;1.58;;;;;;;4.99;91.89;98769.66;4473321;31;34925;-83
2022/01/05 18:59:23;;;;;;;2.17;1.40;;;;;;;5.16;90.44;98774.56;4486417;31;34244;-83
2022/01/05 19:02:10;;;;;;;2.37;1.33;;;;;;;5.14;89.23;98769.41;4485366;31;34817;-84
2022/01/05 19:04:56;;;;;;;2.87;1.45;;;;;;;5.15;89.38;98767.50;4475673;31;35560;-84
2022/01/05 19:07:43;;;;;;;2.80;1.37;;;;;;;5.02;89.82;98752.00;4485280;31;35047;-87
2022/01/05 19:10:29;;;;;;;3.78;1.80;;;;;;;5.05;89.97;98759.53;4477145;31;34501;-83
2022/01/05 19:13:35;;;;;;;3.55;1.80;;;;;;;4.86;91.79;98725.06;4481351;31;32676;-85
2022/01/05 19:16:22;;;;;;;3.50;1.80;;;;;;;5.10;89.94;98743.16;4476387;31;34248;-83
2022/01/05 19:19:08;;;;;;;5.05;1.98;;;;;;;4.83;90.67;98750.09;4475359;31;35025;-83
2022/01/05 19:21:55;;;;;;;3.80;2.00;;;;;;;4.99;89.31;98763.44;4479504;31;34309;-83
2022/01/05 19:24:41;;;;;;;3.17;2.00;;;;;;;5.00;88.81;98768.56;4482055;31;34650;-82
2022/01/05 19:27:29;;;;;;;3.17;1.75;;;;;;;5.03;88.09;98781.53;4488776;31;34255;-81
2022/01/05 19:30:16;;;;;;;3.85;2.03;;;;;;;4.74;87.61;98790.66;4483663;31;35733;-83
2022/01/05 19:33:03;;;;;;;2.72;1.60;;;;;;;4.73;87.97;98801.81;4487678;31;34595;-83
2022/01/05 19:35:49;;;;;;;3.12;1.55;;;;;;;4.90;85.10;98799.41;4480714;31;34051;-82
2022/01/05 19:38:36;;;;;;;2.22;1.23;;;;;;;4.79;84.40;98805.25;4476905;31;34587;-83
2022/01/05 19:41:22;;;;;;;2.22;1.40;;;;;;;4.83;83.70;98800.84;4489274;31;34632;-82
2022/01/05 19:44:13;;;;;;;2.45;1.40;;;;;;;4.67;84.27;98790.22;4484441;31;35453;-85
2022/01/05 19:46:59;;;;;;;1.58;1.20;;;;;;;4.62;81.64;98792.19;4481816;31;33897;-82
2022/01/05 19:49:47;;;;;;;2.10;1.20;;;;;;;4.48;82.05;98806.47;4487447;31;35626;-81
2022/01/05 19:52:39;;;;;;;1.60;0.88;;;;;;;4.39;79.74;98799.28;4478314;31;34898;-78
2022/01/05 19:55:27;;;;;;;1.55;1.00;;;;;;;4.42;78.10;98783.22;4483434;31;34583;-82
2022/01/05 19:58:13;;;;;;;3.80;0.90;;;;;;;4.28;78.38;98783.13;4479218;31;34141;-81
2022/01/05 20:01:00;;;;;;;3.10;1.27;;;;;;;4.32;77.96;98786.06;4483381;31;34432;-80
2022/01/05 20:03:47;;;;;;;2.53;1.25;;;;;;;4.35;77.70;98782.75;4475403;31;36055;-82
2022/01/05 20:06:33;;;;;;;1.83;0.90;;;;;;;4.43;74.43;98784.84;4491935;31;35081;-81
2022/01/05 20:09:22;;;;;;;2.17;0.93;;;;;;;4.36;74.23;98786.31;4485437;31;34852;-83
2022/01/05 20:12:09;;;;;;;1.83;0.80;;;;;;;4.13;73.27;98775.19;4468297;31;34674;-81
2022/01/05 20:14:56;;;;;;;1.75;0.80;;;;;;;4.19;73.25;98790.28;4472423;31;36042;-79
2022/01/05 20:18:08;;;;;;;1.92;0.70;;;;;;;4.10;72.54;98808.31;4483924;31;34688;-80
2022/01/05 20:20:55;;;;;;;2.03;0.90;;;;;;;4.06;72.44;98812.66;4481515;31;34164;-82
2022/01/05 20:23:42;;;;;;;2.03;0.90;;;;;;;3.98;71.85;98841.22;4485725;31;35653;-83
2022/01/05 20:26:31;;;;;;;2.30;0.88;;;;;;;3.95;70.99;98844.50;4489989;31;36367;-82
2022/01/05 20:29:18;;;;;;;2.83;1.00;;;;;;;4.27;70.72;98846.59;4489473;31;34564;-82
2022/01/05 20:32:07;;;;;;;1.65;0.80;;;;;;;3.79;70.20;98870.94;4478808;31;34187;-80
2022/01/05 20:34:53;;;;;;;4.22;1.20;;;;;;;3.83;67.76;98863.06;4475787;31;34530;-84
2022/01/05 20:37:39;;;;;;;2.45;0.90;;;;;;;3.89;67.06;98842.94;4462233;31;35025;-82
2022/01/05 20:40:26;;;;;;;1.58;0.90;;;;;;;3.82;67.80;98835.16;4487076;31;34772;-82
2022/01/05 20:43:12;;;;;;;3.62;0.82;;;;;;;3.91;68.06;98848.88;4479849;31;33775;-83
2022/01/05 20:46:00;;;;;;;3.87;0.98;;;;;;;3.86;66.45;98872.50;4476198;31;34670;-84
2022/01/05 20:48:47;;;;;;;2.42;1.10;;;;;;;3.56;66.56;98869.78;4485773;31;35970;-82
2022/01/05 20:51:33;;;;;;;4.30;1.05;;;;;;;3.74;66.03;98862.06;4475674;31;34178;-80
2022/01/05 20:54:20;;;;;;;2.85;1.08;;;;;;;3.80;65.50;98864.44;4493278;31;34290;-85
2022/01/05 20:57:07;;;;;;;4.50;1.12;;;;;;;3.52;65.56;98873.34;4489961;31;34242;-85
2022/01/05 20:59:53;;;;;;;5.20;1.73;;;;;;;3.72;65.60;98872.37;4472715;31;35915;-80
2022/01/05 21:02:41;;;;;;;8.35;4.43;;;;;;;3.66;65.18;98838.28;4489005;31;35184;-82
2022/01/05 21:05:28;;;;;;;33.58;12.50;;;;;;;3.50;66.15;98870.94;4478288;31;35063;-84
2022/01/05 21:08:14;;;;;;;7.75;2.15;;;;;;;3.54;64.82;98884.72;4487173;31;33374;-85
2022/01/05 21:11:00;;;;;;;4.78;1.35;;;;;;;3.35;65.11;98876.44;4479110;31;36008;-82
2022/01/05 21:13:47;;;;;;;9.00;2.85;;;;;;;3.26;63.95;98889.78;4489943;31;34598;-82
2022/01/05 21:16:33;;;;;;;2.03;0.93;;;;;;;3.29;64.05;98907.38;4485720;31;33697;-84
2022/01/05 21:19:20;;;;;;;3.28;1.12;;;;;;;3.28;65.23;98914.69;4483659;31;35179;-85
2022/01/05 21:22:07;;;;;;;3.17;1.10;;;;;;;3.28;64.30;98911.16;4485622;31;35712;-85
2022/01/05 21:24:53;;;;;;;4.55;1.90;;;;;;;3.24;64.68;98937.16;4479875;31;34524;-85
2022/01/05 21:27:40;;;;;;;3.85;1.20;;;;;;;3.26;63.95;98941.22;4485336;31;34807;-82
2022/01/05 21:30:35;;;;;;;3.05;1.23;;;;;;;3.39;63.49;98939.81;4485242;31;36100;-84
2022/01/05 21:33:22;;;;;;;6.90;1.87;;;;;;;3.31;64.53;98940.38;4477055;31;33950;-85
2022/01/05 21:36:10;;;;;;;2.17;1.10;;;;;;;3.30;64.32;98944.16;4477470;31;35050;-82
2022/01/05 21:38:57;;;;;;;4.20;1.50;;;;;;;3.19;65.08;98945.31;4487824;31;34107;-84
2022/01/05 21:41:43;;;;;;;7.68;1.55;;;;;;;3.25;65.10;98968.59;4483266;31;34566;-84
2022/01/05 21:44:30;;;;;;;4.62;1.42;;;;;;;3.15;64.54;98948.59;4483289;31;36388;-83
2022/01/05 21:47:18;;;;;;;5.72;1.50;;;;;;;3.02;64.83;98946.50;4493653;31;34990;-84
2022/01/05 21:50:09;;;;;;;3.30;1.08;;;;;;;2.92;65.04;98950.06;4479223;31;34091;-82
2022/01/05 21:53:01;;;;;;;3.40;1.30;;;;;;;3.09;65.13;98941.59;4481995;31;34553;-79
2022/01/05 21:55:48;;;;;;;4.10;1.20;;;;;;;2.85;65.07;98940.63;4476141;31;35962;-82
2022/01/05 21:58:34;;;;;;;3.90;1.10;;;;;;;2.92;65.13;98939.22;4479702;31;35966;-82
